Bayard, West Virginia
Current Conditions -  °F | °C
As of 5:15 PM on Friday 24 Oct 2014 (Local Time) from K2G4 Reporting Station
Clear Clear  
Wind Chill: 50°   Ceiling: Unl
Heat Index: 50°   Visibility: 10mi
Dew Point: 32°   Wind: 10mph
Humidity: 50%   Direction: 300°WNW
Pressure: 30.01"   Gusts: NA
Location:  39.27°N, 79.36°W
Report Text: K2G4 242115Z AUTO 30009KT 262V332 10SM CLR 10/00 A3001 RMK AO1
Loading
Personal Weather Stations






























Interactive Weather Map
Tropical Storm Tracking
New forecast layout! Learn more

10-Day Weather Forecast

Advertisements
Track Severe Weather on mobile